sensor_id;sensor_type;location;lat;lon;timestamp;P1;durP1;ratioP1;P2;durP2;ratioP2
36315;SDS011;22343;50.820;2.666;2023-07-20T00:02:26;20.20;;;7.68;;
36315;SDS011;22343;50.820;2.666;2023-07-20T00:05:12;15.50;;;8.13;;
36315;SDS011;22343;50.820;2.666;2023-07-20T00:07:57;14.00;;;7.45;;
36315;SDS011;22343;50.820;2.666;2023-07-20T00:10:42;15.18;;;7.30;;
36315;SDS011;22343;50.820;2.666;2023-07-20T00:13:28;12.40;;;7.03;;
36315;SDS011;22343;50.820;2.666;2023-07-20T00:16:14;13.60;;;7.07;;
36315;SDS011;22343;50.820;2.666;2023-07-20T00:19:00;13.35;;;7.57;;
36315;SDS011;22343;50.820;2.666;2023-07-20T00:21:45;12.77;;;7.07;;
36315;SDS011;22343;50.820;2.666;2023-07-20T00:24:31;12.88;;;6.65;;
36315;SDS011;22343;50.820;2.666;2023-07-20T00:27:17;12.18;;;7.30;;
36315;SDS011;22343;50.820;2.666;2023-07-20T00:30:03;11.50;;;6.63;;
36315;SDS011;22343;50.820;2.666;2023-07-20T00:32:49;15.15;;;7.40;;
36315;SDS011;22343;50.820;2.666;2023-07-20T00:35:35;11.55;;;7.05;;
36315;SDS011;22343;50.820;2.666;2023-07-20T00:38:20;14.68;;;7.68;;
36315;SDS011;22343;50.820;2.666;2023-07-20T00:41:06;13.25;;;7.20;;
36315;SDS011;22343;50.820;2.666;2023-07-20T00:43:51;12.07;;;6.78;;
36315;SDS011;22343;50.820;2.666;2023-07-20T00:46:37;10.80;;;6.82;;
36315;SDS011;22343;50.820;2.666;2023-07-20T00:49:23;12.43;;;7.28;;
36315;SDS011;22343;50.820;2.666;2023-07-20T00:52:10;14.02;;;7.18;;
36315;SDS011;22343;50.820;2.666;2023-07-20T00:54:56;11.70;;;7.28;;
36315;SDS011;22343;50.820;2.666;2023-07-20T00:57:42;13.70;;;7.38;;
36315;SDS011;22343;50.820;2.666;2023-07-20T01:00:28;10.63;;;6.95;;
36315;SDS011;22343;50.820;2.666;2023-07-20T01:03:14;13.95;;;6.95;;
36315;SDS011;22343;50.820;2.666;2023-07-20T01:06:09;11.40;;;6.70;;
36315;SDS011;22343;50.820;2.666;2023-07-20T01:09:18;10.63;;;6.70;;
36315;SDS011;22343;50.820;2.666;2023-07-20T01:15:37;13.85;;;6.72;;
36315;SDS011;22343;50.820;2.666;2023-07-20T01:18:23;12.05;;;6.50;;
36315;SDS011;22343;50.820;2.666;2023-07-20T01:21:18;13.32;;;6.65;;
36315;SDS011;22343;50.820;2.666;2023-07-20T01:31:27;13.73;;;7.20;;
36315;SDS011;22343;50.820;2.666;2023-07-20T01:34:06;17.17;;;8.35;;
36315;SDS011;22343;50.820;2.666;2023-07-20T01:36:54;12.75;;;7.80;;
36315;SDS011;22343;50.820;2.666;2023-07-20T01:39:40;19.67;;;7.80;;
36315;SDS011;22343;50.820;2.666;2023-07-20T01:42:25;16.92;;;7.95;;
36315;SDS011;22343;50.820;2.666;2023-07-20T01:45:11;15.40;;;7.32;;
36315;SDS011;22343;50.820;2.666;2023-07-20T01:47:57;13.88;;;7.78;;
36315;SDS011;22343;50.820;2.666;2023-07-20T01:50:41;13.02;;;7.80;;
36315;SDS011;22343;50.820;2.666;2023-07-20T01:53:27;16.77;;;7.45;;
36315;SDS011;22343;50.820;2.666;2023-07-20T01:56:11;16.30;;;8.20;;
36315;SDS011;22343;50.820;2.666;2023-07-20T01:58:57;13.25;;;8.13;;
36315;SDS011;22343;50.820;2.666;2023-07-20T02:01:43;13.20;;;8.15;;
36315;SDS011;22343;50.820;2.666;2023-07-20T02:04:29;15.30;;;8.60;;
36315;SDS011;22343;50.820;2.666;2023-07-20T02:07:14;15.48;;;8.57;;
36315;SDS011;22343;50.820;2.666;2023-07-20T02:09:59;15.15;;;8.68;;
36315;SDS011;22343;50.820;2.666;2023-07-20T02:12:45;18.67;;;8.80;;
36315;SDS011;22343;50.820;2.666;2023-07-20T02:15:31;14.88;;;8.40;;
36315;SDS011;22343;50.820;2.666;2023-07-20T02:18:16;14.65;;;8.27;;
36315;SDS011;22343;50.820;2.666;2023-07-20T02:21:02;13.82;;;7.82;;
36315;SDS011;22343;50.820;2.666;2023-07-20T02:23:48;16.83;;;8.38;;
36315;SDS011;22343;50.820;2.666;2023-07-20T02:26:34;14.13;;;7.88;;
36315;SDS011;22343;50.820;2.666;2023-07-20T02:29:18;13.32;;;8.13;;
36315;SDS011;22343;50.820;2.666;2023-07-20T02:32:02;16.75;;;8.45;;
36315;SDS011;22343;50.820;2.666;2023-07-20T02:34:47;18.80;;;9.00;;
36315;SDS011;22343;50.820;2.666;2023-07-20T02:37:31;14.68;;;7.95;;
36315;SDS011;22343;50.820;2.666;2023-07-20T02:40:16;14.27;;;8.43;;
36315;SDS011;22343;50.820;2.666;2023-07-20T02:43:02;12.02;;;7.63;;
36315;SDS011;22343;50.820;2.666;2023-07-20T02:45:49;13.63;;;8.40;;
36315;SDS011;22343;50.820;2.666;2023-07-20T02:48:35;16.52;;;8.38;;
36315;SDS011;22343;50.820;2.666;2023-07-20T02:51:20;16.45;;;8.43;;
36315;SDS011;22343;50.820;2.666;2023-07-20T02:54:06;19.08;;;9.05;;
36315;SDS011;22343;50.820;2.666;2023-07-20T02:56:52;15.38;;;9.05;;
36315;SDS011;22343;50.820;2.666;2023-07-20T02:59:36;15.32;;;8.20;;
36315;SDS011;22343;50.820;2.666;2023-07-20T03:02:22;20.45;;;8.98;;
36315;SDS011;22343;50.820;2.666;2023-07-20T03:05:07;13.65;;;8.55;;
36315;SDS011;22343;50.820;2.666;2023-07-20T03:07:54;12.85;;;8.55;;
36315;SDS011;22343;50.820;2.666;2023-07-20T03:10:41;18.13;;;8.52;;
36315;SDS011;22343;50.820;2.666;2023-07-20T03:13:26;13.40;;;8.07;;
36315;SDS011;22343;50.820;2.666;2023-07-20T03:16:12;13.63;;;8.75;;
36315;SDS011;22343;50.820;2.666;2023-07-20T03:19:00;15.10;;;8.45;;
36315;SDS011;22343;50.820;2.666;2023-07-20T03:21:46;13.68;;;8.55;;
36315;SDS011;22343;50.820;2.666;2023-07-20T03:24:32;14.55;;;8.65;;
36315;SDS011;22343;50.820;2.666;2023-07-20T03:27:16;12.60;;;8.23;;
36315;SDS011;22343;50.820;2.666;2023-07-20T03:30:02;13.85;;;8.18;;
36315;SDS011;22343;50.820;2.666;2023-07-20T03:32:49;12.73;;;8.60;;
36315;SDS011;22343;50.820;2.666;2023-07-20T03:35:34;15.40;;;8.15;;
36315;SDS011;22343;50.820;2.666;2023-07-20T03:38:18;10.75;;;8.00;;
36315;SDS011;22343;50.820;2.666;2023-07-20T03:41:04;14.02;;;8.57;;
36315;SDS011;22343;50.820;2.666;2023-07-20T03:43:49;14.57;;;8.23;;
36315;SDS011;22343;50.820;2.666;2023-07-20T03:46:35;15.52;;;8.63;;
36315;SDS011;22343;50.820;2.666;2023-07-20T03:49:20;11.27;;;7.40;;
36315;SDS011;22343;50.820;2.666;2023-07-20T03:52:07;12.48;;;7.32;;
36315;SDS011;22343;50.820;2.666;2023-07-20T03:54:52;10.82;;;7.68;;
36315;SDS011;22343;50.820;2.666;2023-07-20T03:57:38;12.98;;;7.85;;
36315;SDS011;22343;50.820;2.666;2023-07-20T04:00:23;11.02;;;7.57;;
36315;SDS011;22343;50.820;2.666;2023-07-20T04:03:09;12.10;;;7.70;;
36315;SDS011;22343;50.820;2.666;2023-07-20T04:05:55;13.93;;;7.95;;
36315;SDS011;22343;50.820;2.666;2023-07-20T04:08:41;12.27;;;8.02;;
36315;SDS011;22343;50.820;2.666;2023-07-20T04:11:25;13.43;;;8.00;;
36315;SDS011;22343;50.820;2.666;2023-07-20T04:14:11;13.80;;;8.25;;
36315;SDS011;22343;50.820;2.666;2023-07-20T04:16:57;15.73;;;8.20;;
36315;SDS011;22343;50.820;2.666;2023-07-20T04:19:41;11.25;;;8.07;;
36315;SDS011;22343;50.820;2.666;2023-07-20T04:22:28;13.90;;;8.90;;
36315;SDS011;22343;50.820;2.666;2023-07-20T04:25:14;14.95;;;8.13;;
36315;SDS011;22343;50.820;2.666;2023-07-20T04:28:00;13.10;;;8.25;;
36315;SDS011;22343;50.820;2.666;2023-07-20T04:30:48;11.05;;;7.53;;
36315;SDS011;22343;50.820;2.666;2023-07-20T04:33:35;11.27;;;7.90;;
36315;SDS011;22343;50.820;2.666;2023-07-20T04:36:20;10.77;;;8.18;;
36315;SDS011;22343;50.820;2.666;2023-07-20T04:39:06;11.45;;;7.72;;
36315;SDS011;22343;50.820;2.666;2023-07-20T04:41:52;14.40;;;9.30;;
36315;SDS011;22343;50.820;2.666;2023-07-20T04:44:38;15.45;;;8.55;;
36315;SDS011;22343;50.820;2.666;2023-07-20T04:47:23;14.38;;;8.25;;
36315;SDS011;22343;50.820;2.666;2023-07-20T04:50:08;11.57;;;8.23;;
36315;SDS011;22343;50.820;2.666;2023-07-20T04:52:54;14.95;;;8.30;;
36315;SDS011;22343;50.820;2.666;2023-07-20T04:55:39;15.43;;;8.77;;
36315;SDS011;22343;50.820;2.666;2023-07-20T04:58:25;13.77;;;8.57;;
36315;SDS011;22343;50.820;2.666;2023-07-20T05:01:10;12.68;;;8.30;;
36315;SDS011;22343;50.820;2.666;2023-07-20T05:03:56;13.77;;;8.40;;
36315;SDS011;22343;50.820;2.666;2023-07-20T05:06:42;14.32;;;8.52;;
36315;SDS011;22343;50.820;2.666;2023-07-20T05:09:28;10.48;;;7.90;;
36315;SDS011;22343;50.820;2.666;2023-07-20T05:12:12;16.00;;;9.25;;
36315;SDS011;22343;50.820;2.666;2023-07-20T05:14:57;15.52;;;9.35;;
36315;SDS011;22343;50.820;2.666;2023-07-20T05:17:42;13.35;;;8.70;;
36315;SDS011;22343;50.820;2.666;2023-07-20T05:20:28;16.55;;;9.05;;
36315;SDS011;22343;50.820;2.666;2023-07-20T05:23:13;10.77;;;8.57;;
36315;SDS011;22343;50.820;2.666;2023-07-20T05:25:59;13.43;;;9.02;;
36315;SDS011;22343;50.820;2.666;2023-07-20T05:28:45;14.65;;;8.82;;
36315;SDS011;22343;50.820;2.666;2023-07-20T05:31:29;16.85;;;9.52;;
36315;SDS011;22343;50.820;2.666;2023-07-20T05:34:16;14.48;;;9.57;;
36315;SDS011;22343;50.820;2.666;2023-07-20T05:37:06;13.30;;;9.07;;
36315;SDS011;22343;50.820;2.666;2023-07-20T05:39:52;12.80;;;9.25;;
36315;SDS011;22343;50.820;2.666;2023-07-20T05:42:36;13.55;;;9.20;;
36315;SDS011;22343;50.820;2.666;2023-07-20T05:45:22;14.95;;;9.05;;
36315;SDS011;22343;50.820;2.666;2023-07-20T05:48:07;18.58;;;9.30;;
36315;SDS011;22343;50.820;2.666;2023-07-20T05:50:53;12.93;;;9.38;;
36315;SDS011;22343;50.820;2.666;2023-07-20T05:53:39;12.35;;;8.80;;
36315;SDS011;22343;50.820;2.666;2023-07-20T05:56:25;12.65;;;9.38;;
36315;SDS011;22343;50.820;2.666;2023-07-20T05:59:09;13.77;;;9.00;;
36315;SDS011;22343;50.820;2.666;2023-07-20T06:01:56;10.65;;;8.85;;
36315;SDS011;22343;50.820;2.666;2023-07-20T06:04:42;11.75;;;8.90;;
36315;SDS011;22343;50.820;2.666;2023-07-20T06:07:28;10.25;;;8.27;;
36315;SDS011;22343;50.820;2.666;2023-07-20T06:10:13;9.27;;;7.75;;
36315;SDS011;22343;50.820;2.666;2023-07-20T06:13:00;10.30;;;7.70;;
36315;SDS011;22343;50.820;2.666;2023-07-20T06:15:44;8.43;;;7.03;;
36315;SDS011;22343;50.820;2.666;2023-07-20T06:18:30;9.38;;;6.78;;
36315;SDS011;22343;50.820;2.666;2023-07-20T06:21:15;7.22;;;6.50;;
36315;SDS011;22343;50.820;2.666;2023-07-20T06:24:00;6.90;;;6.20;;
36315;SDS011;22343;50.820;2.666;2023-07-20T06:26:46;7.10;;;6.43;;
36315;SDS011;22343;50.820;2.666;2023-07-20T06:29:31;8.15;;;5.95;;
36315;SDS011;22343;50.820;2.666;2023-07-20T06:32:16;6.43;;;5.55;;
36315;SDS011;22343;50.820;2.666;2023-07-20T06:35:02;9.70;;;5.70;;
36315;SDS011;22343;50.820;2.666;2023-07-20T06:37:48;7.05;;;5.90;;
36315;SDS011;22343;50.820;2.666;2023-07-20T06:40:33;6.95;;;5.65;;
36315;SDS011;22343;50.820;2.666;2023-07-20T06:43:19;6.97;;;5.82;;
36315;SDS011;22343;50.820;2.666;2023-07-20T06:46:04;8.00;;;5.72;;
36315;SDS011;22343;50.820;2.666;2023-07-20T06:48:49;7.07;;;5.50;;
36315;SDS011;22343;50.820;2.666;2023-07-20T06:51:33;7.10;;;5.97;;
36315;SDS011;22343;50.820;2.666;2023-07-20T06:54:18;6.47;;;5.88;;
36315;SDS011;22343;50.820;2.666;2023-07-20T06:57:02;8.02;;;5.60;;
36315;SDS011;22343;50.820;2.666;2023-07-20T06:59:47;6.93;;;5.80;;
36315;SDS011;22343;50.820;2.666;2023-07-20T07:02:32;6.57;;;5.72;;
36315;SDS011;22343;50.820;2.666;2023-07-20T07:05:17;6.97;;;5.70;;
36315;SDS011;22343;50.820;2.666;2023-07-20T07:08:02;6.65;;;5.93;;
36315;SDS011;22343;50.820;2.666;2023-07-20T07:10:48;6.65;;;5.78;;
36315;SDS011;22343;50.820;2.666;2023-07-20T07:13:35;7.22;;;6.53;;
36315;SDS011;22343;50.820;2.666;2023-07-20T07:16:19;7.22;;;6.53;;
36315;SDS011;22343;50.820;2.666;2023-07-20T07:19:04;8.00;;;7.20;;
36315;SDS011;22343;50.820;2.666;2023-07-20T07:21:49;7.82;;;7.03;;
36315;SDS011;22343;50.820;2.666;2023-07-20T07:24:35;8.45;;;7.20;;
36315;SDS011;22343;50.820;2.666;2023-07-20T07:27:20;8.57;;;7.32;;
36315;SDS011;22343;50.820;2.666;2023-07-20T07:30:04;8.73;;;7.70;;
36315;SDS011;22343;50.820;2.666;2023-07-20T07:32:49;8.98;;;7.80;;
36315;SDS011;22343;50.820;2.666;2023-07-20T07:35:33;9.27;;;7.82;;
36315;SDS011;22343;50.820;2.666;2023-07-20T07:38:18;7.88;;;7.07;;
36315;SDS011;22343;50.820;2.666;2023-07-20T07:41:03;8.73;;;7.90;;
36315;SDS011;22343;50.820;2.666;2023-07-20T07:43:47;9.45;;;8.52;;
36315;SDS011;22343;50.820;2.666;2023-07-20T07:46:31;9.15;;;8.35;;
36315;SDS011;22343;50.820;2.666;2023-07-20T07:49:16;11.93;;;10.43;;
36315;SDS011;22343;50.820;2.666;2023-07-20T07:52:00;11.35;;;10.15;;
36315;SDS011;22343;50.820;2.666;2023-07-20T07:54:46;12.82;;;11.52;;
36315;SDS011;22343;50.820;2.666;2023-07-20T07:57:30;11.20;;;9.25;;
36315;SDS011;22343;50.820;2.666;2023-07-20T08:00:15;12.63;;;9.70;;
36315;SDS011;22343;50.820;2.666;2023-07-20T08:03:03;10.70;;;9.70;;
36315;SDS011;22343;50.820;2.666;2023-07-20T08:05:47;10.13;;;9.07;;
36315;SDS011;22343;50.820;2.666;2023-07-20T08:08:32;10.80;;;8.82;;
36315;SDS011;22343;50.820;2.666;2023-07-20T08:11:16;9.23;;;8.32;;
36315;SDS011;22343;50.820;2.666;2023-07-20T08:14:02;9.98;;;8.23;;
36315;SDS011;22343;50.820;2.666;2023-07-20T08:16:47;9.32;;;8.32;;
36315;SDS011;22343;50.820;2.666;2023-07-20T08:19:31;10.57;;;9.48;;
36315;SDS011;22343;50.820;2.666;2023-07-20T08:22:15;10.13;;;9.18;;
36315;SDS011;22343;50.820;2.666;2023-07-20T08:25:00;10.68;;;9.68;;
36315;SDS011;22343;50.820;2.666;2023-07-20T08:27:44;10.93;;;9.93;;
36315;SDS011;22343;50.820;2.666;2023-07-20T08:30:40;11.10;;;10.10;;
36315;SDS011;22343;50.820;2.666;2023-07-20T08:33:26;11.27;;;10.07;;
36315;SDS011;22343;50.820;2.666;2023-07-20T08:36:13;10.85;;;9.75;;
36315;SDS011;22343;50.820;2.666;2023-07-20T08:38:57;11.63;;;10.48;;
36315;SDS011;22343;50.820;2.666;2023-07-20T08:41:42;10.32;;;9.43;;
36315;SDS011;22343;50.820;2.666;2023-07-20T08:44:27;10.50;;;9.60;;
36315;SDS011;22343;50.820;2.666;2023-07-20T08:47:12;10.55;;;9.35;;
36315;SDS011;22343;50.820;2.666;2023-07-20T08:49:58;11.30;;;10.20;;
36315;SDS011;22343;50.820;2.666;2023-07-20T08:52:43;11.15;;;10.05;;
36315;SDS011;22343;50.820;2.666;2023-07-20T08:55:27;11.48;;;10.38;;
36315;SDS011;22343;50.820;2.666;2023-07-20T08:58:14;11.23;;;10.13;;
36315;SDS011;22343;50.820;2.666;2023-07-20T09:00:59;11.07;;;9.88;;
36315;SDS011;22343;50.820;2.666;2023-07-20T09:03:46;8.68;;;7.90;;
36315;SDS011;22343;50.820;2.666;2023-07-20T09:06:30;12.20;;;11.00;;
36315;SDS011;22343;50.820;2.666;2023-07-20T09:09:16;12.60;;;11.43;;
36315;SDS011;22343;50.820;2.666;2023-07-20T09:12:02;11.88;;;10.68;;
36315;SDS011;22343;50.820;2.666;2023-07-20T09:14:48;9.68;;;8.68;;
36315;SDS011;22343;50.820;2.666;2023-07-20T09:17:34;14.88;;;13.27;;
36315;SDS011;22343;50.820;2.666;2023-07-20T09:20:20;10.48;;;9.07;;
36315;SDS011;22343;50.820;2.666;2023-07-20T09:23:05;9.75;;;8.73;;
36315;SDS011;22343;50.820;2.666;2023-07-20T09:25:51;9.70;;;8.13;;
36315;SDS011;22343;50.820;2.666;2023-07-20T09:28:44;7.80;;;7.00;;
36315;SDS011;22343;50.820;2.666;2023-07-20T09:31:33;8.25;;;7.43;;
36315;SDS011;22343;50.820;2.666;2023-07-20T09:34:19;7.20;;;6.50;;
36315;SDS011;22343;50.820;2.666;2023-07-20T09:37:05;7.40;;;5.60;;
36315;SDS011;22343;50.820;2.666;2023-07-20T09:39:51;5.40;;;4.90;;
36315;SDS011;22343;50.820;2.666;2023-07-20T09:42:37;5.35;;;4.85;;
36315;SDS011;22343;50.820;2.666;2023-07-20T09:45:23;6.95;;;5.80;;
36315;SDS011;22343;50.820;2.666;2023-07-20T09:48:09;5.50;;;5.00;;
36315;SDS011;22343;50.820;2.666;2023-07-20T09:50:55;5.07;;;4.20;;
36315;SDS011;22343;50.820;2.666;2023-07-20T09:53:41;5.88;;;3.88;;
36315;SDS011;22343;50.820;2.666;2023-07-20T09:56:25;4.38;;;3.90;;
36315;SDS011;22343;50.820;2.666;2023-07-20T09:59:10;4.68;;;4.20;;
36315;SDS011;22343;50.820;2.666;2023-07-20T10:01:56;5.05;;;4.60;;
36315;SDS011;22343;50.820;2.666;2023-07-20T10:04:44;4.78;;;4.38;;
36315;SDS011;22343;50.820;2.666;2023-07-20T10:07:30;6.00;;;4.40;;
36315;SDS011;22343;50.820;2.666;2023-07-20T10:10:16;5.20;;;4.70;;
36315;SDS011;22343;50.820;2.666;2023-07-20T10:13:03;7.50;;;4.90;;
36315;SDS011;22343;50.820;2.666;2023-07-20T10:15:50;7.05;;;5.38;;
36315;SDS011;22343;50.820;2.666;2023-07-20T10:21:37;7.72;;;5.38;;
36315;SDS011;22343;50.820;2.666;2023-07-20T10:24:26;10.85;;;7.25;;
36315;SDS011;22343;50.820;2.666;2023-07-20T10:27:12;8.93;;;5.75;;
36315;SDS011;22343;50.820;2.666;2023-07-20T10:29:57;6.20;;;5.60;;
36315;SDS011;22343;50.820;2.666;2023-07-20T10:32:43;5.78;;;5.15;;
36315;SDS011;22343;50.820;2.666;2023-07-20T10:35:28;7.93;;;5.30;;
36315;SDS011;22343;50.820;2.666;2023-07-20T10:38:13;7.82;;;6.20;;
36315;SDS011;22343;50.820;2.666;2023-07-20T10:40:57;7.03;;;6.30;;
36315;SDS011;22343;50.820;2.666;2023-07-20T10:43:42;7.30;;;6.20;;
36315;SDS011;22343;50.820;2.666;2023-07-20T10:49:34;10.30;;;5.85;;
36315;SDS011;22343;50.820;2.666;2023-07-20T10:52:20;6.00;;;5.00;;
36315;SDS011;22343;50.820;2.666;2023-07-20T10:55:16;5.95;;;4.28;;
36315;SDS011;22343;50.820;2.666;2023-07-20T10:58:06;6.05;;;4.28;;
36315;SDS011;22343;50.820;2.666;2023-07-20T11:01:01;4.65;;;3.80;;
36315;SDS011;22343;50.820;2.666;2023-07-20T11:03:49;3.75;;;3.40;;
36315;SDS011;22343;50.820;2.666;2023-07-20T11:06:34;4.20;;;3.50;;
36315;SDS011;22343;50.820;2.666;2023-07-20T11:09:22;3.85;;;3.50;;
36315;SDS011;22343;50.820;2.666;2023-07-20T11:12:10;5.68;;;3.63;;
36315;SDS011;22343;50.820;2.666;2023-07-20T11:14:55;4.40;;;3.40;;
36315;SDS011;22343;50.820;2.666;2023-07-20T11:17:40;4.75;;;3.20;;
36315;SDS011;22343;50.820;2.666;2023-07-20T11:20:25;4.03;;;3.28;;
36315;SDS011;22343;50.820;2.666;2023-07-20T11:23:09;5.40;;;3.90;;
36315;SDS011;22343;50.820;2.666;2023-07-20T11:25:54;6.05;;;3.70;;
36315;SDS011;22343;50.820;2.666;2023-07-20T11:28:39;4.00;;;3.40;;
36315;SDS011;22343;50.820;2.666;2023-07-20T11:31:23;5.18;;;3.40;;
36315;SDS011;22343;50.820;2.666;2023-07-20T11:34:10;3.58;;;2.97;;
36315;SDS011;22343;50.820;2.666;2023-07-20T11:36:57;3.85;;;2.92;;
36315;SDS011;22343;50.820;2.666;2023-07-20T11:39:41;3.42;;;3.13;;
36315;SDS011;22343;50.820;2.666;2023-07-20T11:42:26;3.85;;;3.35;;
36315;SDS011;22343;50.820;2.666;2023-07-20T11:45:11;5.20;;;4.70;;
36315;SDS011;22343;50.820;2.666;2023-07-20T11:47:58;5.30;;;4.80;;
36315;SDS011;22343;50.820;2.666;2023-07-20T11:50:43;5.30;;;4.90;;
36315;SDS011;22343;50.820;2.666;2023-07-20T11:53:29;5.43;;;5.00;;
36315;SDS011;22343;50.820;2.666;2023-07-20T11:56:18;5.50;;;5.00;;
36315;SDS011;22343;50.820;2.666;2023-07-20T11:59:04;5.72;;;5.22;;
36315;SDS011;22343;50.820;2.666;2023-07-20T12:01:50;5.80;;;5.30;;
36315;SDS011;22343;50.820;2.666;2023-07-20T12:04:35;6.15;;;5.55;;
36315;SDS011;22343;50.820;2.666;2023-07-20T12:07:22;6.43;;;5.82;;
36315;SDS011;22343;50.820;2.666;2023-07-20T12:10:08;6.47;;;5.88;;
36315;SDS011;22343;50.820;2.666;2023-07-20T12:13:01;6.53;;;5.85;;
36315;SDS011;22343;50.820;2.666;2023-07-20T12:15:47;6.07;;;5.47;;
36315;SDS011;22343;50.820;2.666;2023-07-20T12:18:35;7.20;;;6.20;;
36315;SDS011;22343;50.820;2.666;2023-07-20T12:21:21;7.15;;;6.45;;
36315;SDS011;22343;50.820;2.666;2023-07-20T12:24:07;7.68;;;6.82;;
36315;SDS011;22343;50.820;2.666;2023-07-20T12:26:57;7.82;;;7.03;;
36315;SDS011;22343;50.820;2.666;2023-07-20T12:29:42;7.43;;;6.72;;
36315;SDS011;22343;50.820;2.666;2023-07-20T12:32:29;8.50;;;7.70;;
36315;SDS011;22343;50.820;2.666;2023-07-20T12:35:15;8.63;;;7.10;;
36315;SDS011;22343;50.820;2.666;2023-07-20T12:38:01;7.72;;;6.93;;
36315;SDS011;22343;50.820;2.666;2023-07-20T12:40:45;8.27;;;7.18;;
36315;SDS011;22343;50.820;2.666;2023-07-20T12:43:30;7.90;;;6.95;;
36315;SDS011;22343;50.820;2.666;2023-07-20T12:46:15;6.72;;;6.13;;
36315;SDS011;22343;50.820;2.666;2023-07-20T12:49:00;7.50;;;6.70;;
36315;SDS011;22343;50.820;2.666;2023-07-20T12:51:45;6.43;;;5.80;;
36315;SDS011;22343;50.820;2.666;2023-07-20T12:54:29;7.70;;;7.00;;
36315;SDS011;22343;50.820;2.666;2023-07-20T12:57:13;7.53;;;6.82;;
36315;SDS011;22343;50.820;2.666;2023-07-20T12:59:58;7.47;;;6.78;;
36315;SDS011;22343;50.820;2.666;2023-07-20T13:02:42;8.27;;;7.32;;
36315;SDS011;22343;50.820;2.666;2023-07-20T13:05:27;8.13;;;7.43;;
36315;SDS011;22343;50.820;2.666;2023-07-20T13:08:11;7.85;;;7.13;;
36315;SDS011;22343;50.820;2.666;2023-07-20T13:10:55;7.18;;;6.57;;
36315;SDS011;22343;50.820;2.666;2023-07-20T13:13:40;7.10;;;6.40;;
36315;SDS011;22343;50.820;2.666;2023-07-20T13:16:25;7.25;;;6.60;;
36315;SDS011;22343;50.820;2.666;2023-07-20T13:19:09;6.90;;;6.20;;
36315;SDS011;22343;50.820;2.666;2023-07-20T13:21:54;7.07;;;6.47;;
36315;SDS011;22343;50.820;2.666;2023-07-20T13:24:39;6.72;;;6.07;;
36315;SDS011;22343;50.820;2.666;2023-07-20T13:27:23;7.05;;;6.45;;
36315;SDS011;22343;50.820;2.666;2023-07-20T13:30:09;6.82;;;6.22;;
36315;SDS011;22343;50.820;2.666;2023-07-20T13:33:00;6.00;;;5.50;;
36315;SDS011;22343;50.820;2.666;2023-07-20T13:35:44;7.25;;;6.28;;
36315;SDS011;22343;50.820;2.666;2023-07-20T13:38:28;6.07;;;5.55;;
36315;SDS011;22343;50.820;2.666;2023-07-20T13:41:13;6.07;;;5.57;;
36315;SDS011;22343;50.820;2.666;2023-07-20T13:43:57;5.82;;;5.32;;
36315;SDS011;22343;50.820;2.666;2023-07-20T13:46:42;6.65;;;5.38;;
36315;SDS011;22343;50.820;2.666;2023-07-20T13:49:26;5.47;;;5.07;;
36315;SDS011;22343;50.820;2.666;2023-07-20T13:52:11;5.38;;;4.90;;
36315;SDS011;22343;50.820;2.666;2023-07-20T13:54:55;5.05;;;4.65;;
36315;SDS011;22343;50.820;2.666;2023-07-20T13:57:40;4.90;;;4.50;;
36315;SDS011;22343;50.820;2.666;2023-07-20T14:00:24;4.72;;;4.32;;
36315;SDS011;22343;50.820;2.666;2023-07-20T14:03:10;5.47;;;4.97;;
36315;SDS011;22343;50.820;2.666;2023-07-20T14:05:54;5.70;;;5.13;;
36315;SDS011;22343;50.820;2.666;2023-07-20T14:08:38;5.35;;;4.85;;
36315;SDS011;22343;50.820;2.666;2023-07-20T14:11:24;5.95;;;5.45;;
36315;SDS011;22343;50.820;2.666;2023-07-20T14:14:09;5.55;;;5.15;;
36315;SDS011;22343;50.820;2.666;2023-07-20T14:16:53;4.82;;;4.43;;
36315;SDS011;22343;50.820;2.666;2023-07-20T14:19:37;5.72;;;4.90;;
36315;SDS011;22343;50.820;2.666;2023-07-20T14:22:22;5.53;;;5.03;;
36315;SDS011;22343;50.820;2.666;2023-07-20T14:25:07;5.03;;;4.63;;
36315;SDS011;22343;50.820;2.666;2023-07-20T14:27:52;5.47;;;4.97;;
36315;SDS011;22343;50.820;2.666;2023-07-20T14:30:36;5.68;;;5.07;;
36315;SDS011;22343;50.820;2.666;2023-07-20T14:33:21;5.32;;;4.85;;
36315;SDS011;22343;50.820;2.666;2023-07-20T14:36:06;5.55;;;4.97;;
36315;SDS011;22343;50.820;2.666;2023-07-20T14:38:50;5.45;;;4.95;;
36315;SDS011;22343;50.820;2.666;2023-07-20T14:41:35;5.47;;;4.97;;
36315;SDS011;22343;50.820;2.666;2023-07-20T14:44:19;5.10;;;4.60;;
36315;SDS011;22343;50.820;2.666;2023-07-20T14:47:04;4.60;;;4.20;;
36315;SDS011;22343;50.820;2.666;2023-07-20T14:49:49;4.32;;;3.92;;
36315;SDS011;22343;50.820;2.666;2023-07-20T14:52:34;5.55;;;5.05;;
36315;SDS011;22343;50.820;2.666;2023-07-20T14:55:18;5.32;;;4.80;;
36315;SDS011;22343;50.820;2.666;2023-07-20T14:58:03;5.78;;;5.28;;
36315;SDS011;22343;50.820;2.666;2023-07-20T15:00:47;5.10;;;4.60;;
36315;SDS011;22343;50.820;2.666;2023-07-20T15:03:32;5.55;;;4.68;;
36315;SDS011;22343;50.820;2.666;2023-07-20T15:06:17;5.10;;;4.50;;
36315;SDS011;22343;50.820;2.666;2023-07-20T15:09:01;5.00;;;4.50;;
36315;SDS011;22343;50.820;2.666;2023-07-20T15:11:46;5.15;;;4.70;;
36315;SDS011;22343;50.820;2.666;2023-07-20T15:14:31;5.68;;;4.30;;
36315;SDS011;22343;50.820;2.666;2023-07-20T15:17:15;4.63;;;4.20;;
36315;SDS011;22343;50.820;2.666;2023-07-20T15:20:00;4.75;;;4.35;;
36315;SDS011;22343;50.820;2.666;2023-07-20T15:22:48;4.93;;;4.53;;
36315;SDS011;22343;50.820;2.666;2023-07-20T15:25:32;4.82;;;4.43;;
36315;SDS011;22343;50.820;2.666;2023-07-20T15:28:17;5.10;;;4.65;;
36315;SDS011;22343;50.820;2.666;2023-07-20T15:31:02;5.03;;;4.53;;
36315;SDS011;22343;50.820;2.666;2023-07-20T15:33:47;6.03;;;4.78;;
36315;SDS011;22343;50.820;2.666;2023-07-20T15:36:32;4.95;;;4.55;;
36315;SDS011;22343;50.820;2.666;2023-07-20T15:39:16;5.30;;;4.80;;
36315;SDS011;22343;50.820;2.666;2023-07-20T15:42:00;5.60;;;5.10;;
36315;SDS011;22343;50.820;2.666;2023-07-20T15:44:45;5.43;;;4.93;;
36315;SDS011;22343;50.820;2.666;2023-07-20T15:47:31;5.93;;;5.38;;
36315;SDS011;22343;50.820;2.666;2023-07-20T15:50:15;4.85;;;4.45;;
36315;SDS011;22343;50.820;2.666;2023-07-20T15:53:00;5.28;;;4.68;;
36315;SDS011;22343;50.820;2.666;2023-07-20T15:55:49;5.13;;;4.63;;
36315;SDS011;22343;50.820;2.666;2023-07-20T15:58:38;5.20;;;4.70;;
36315;SDS011;22343;50.820;2.666;2023-07-20T16:01:24;5.47;;;4.68;;
36315;SDS011;22343;50.820;2.666;2023-07-20T16:04:11;5.10;;;4.30;;
36315;SDS011;22343;50.820;2.666;2023-07-20T16:06:58;4.70;;;4.25;;
36315;SDS011;22343;50.820;2.666;2023-07-20T16:09:42;5.13;;;4.63;;
36315;SDS011;22343;50.820;2.666;2023-07-20T16:12:27;4.70;;;4.30;;
36315;SDS011;22343;50.820;2.666;2023-07-20T16:15:13;4.28;;;3.88;;
36315;SDS011;22343;50.820;2.666;2023-07-20T16:17:59;4.63;;;4.22;;
36315;SDS011;22343;50.820;2.666;2023-07-20T16:20:43;4.65;;;4.25;;
36315;SDS011;22343;50.820;2.666;2023-07-20T16:23:29;4.90;;;4.50;;
36315;SDS011;22343;50.820;2.666;2023-07-20T16:26:16;5.55;;;4.53;;
36315;SDS011;22343;50.820;2.666;2023-07-20T16:29:00;5.30;;;4.72;;
36315;SDS011;22343;50.820;2.666;2023-07-20T16:31:46;5.50;;;4.75;;
36315;SDS011;22343;50.820;2.666;2023-07-20T16:34:31;4.80;;;4.38;;
36315;SDS011;22343;50.820;2.666;2023-07-20T16:37:16;5.32;;;4.82;;
36315;SDS011;22343;50.820;2.666;2023-07-20T16:40:03;5.50;;;4.80;;
36315;SDS011;22343;50.820;2.666;2023-07-20T16:42:53;5.60;;;5.10;;
36315;SDS011;22343;50.820;2.666;2023-07-20T16:45:38;6.07;;;5.47;;
36315;SDS011;22343;50.820;2.666;2023-07-20T16:48:24;6.20;;;5.53;;